sensor_id;sensor_type;location;lat;lon;timestamp;P1;durP1;ratioP1;P2;durP2;ratioP2
71106;SDS011;58763;47.982;11.516;2023-04-26T00:02:12;6.63;;;3.70;;
71106;SDS011;58763;47.982;11.516;2023-04-26T00:04:38;6.10;;;3.50;;
71106;SDS011;58763;47.982;11.516;2023-04-26T00:07:04;7.97;;;3.67;;
71106;SDS011;58763;47.982;11.516;2023-04-26T00:09:30;8.88;;;4.53;;
71106;SDS011;58763;47.982;11.516;2023-04-26T00:11:56;7.35;;;4.03;;
71106;SDS011;58763;47.982;11.516;2023-04-26T00:14:22;7.85;;;4.10;;
71106;SDS011;58763;47.982;11.516;2023-04-26T00:16:47;7.50;;;3.55;;
71106;SDS011;58763;47.982;11.516;2023-04-26T00:19:13;7.10;;;4.05;;
71106;SDS011;58763;47.982;11.516;2023-04-26T00:21:40;7.20;;;4.20;;
71106;SDS011;58763;47.982;11.516;2023-04-26T00:24:06;9.60;;;3.70;;
71106;SDS011;58763;47.982;11.516;2023-04-26T00:26:32;8.35;;;4.05;;
71106;SDS011;58763;47.982;11.516;2023-04-26T00:28:58;8.00;;;4.00;;
71106;SDS011;58763;47.982;11.516;2023-04-26T00:31:24;8.93;;;4.57;;
71106;SDS011;58763;47.982;11.516;2023-04-26T00:33:50;7.68;;;4.18;;
71106;SDS011;58763;47.982;11.516;2023-04-26T00:36:15;10.27;;;4.45;;
71106;SDS011;58763;47.982;11.516;2023-04-26T00:38:43;8.60;;;4.78;;
71106;SDS011;58763;47.982;11.516;2023-04-26T00:41:10;10.25;;;4.82;;
71106;SDS011;58763;47.982;11.516;2023-04-26T00:43:36;8.63;;;4.25;;
71106;SDS011;58763;47.982;11.516;2023-04-26T00:46:02;8.23;;;4.40;;
71106;SDS011;58763;47.982;11.516;2023-04-26T00:48:27;9.82;;;4.35;;
71106;SDS011;58763;47.982;11.516;2023-04-26T00:50:54;8.60;;;4.45;;
71106;SDS011;58763;47.982;11.516;2023-04-26T00:53:20;9.50;;;4.75;;
71106;SDS011;58763;47.982;11.516;2023-04-26T00:55:46;9.75;;;4.70;;
71106;SDS011;58763;47.982;11.516;2023-04-26T00:58:13;7.57;;;4.10;;
71106;SDS011;58763;47.982;11.516;2023-04-26T01:00:38;10.88;;;4.97;;
71106;SDS011;58763;47.982;11.516;2023-04-26T01:03:04;9.35;;;5.05;;
71106;SDS011;58763;47.982;11.516;2023-04-26T01:05:30;9.27;;;4.72;;
71106;SDS011;58763;47.982;11.516;2023-04-26T01:07:55;7.82;;;4.30;;
71106;SDS011;58763;47.982;11.516;2023-04-26T01:10:21;8.65;;;4.53;;
71106;SDS011;58763;47.982;11.516;2023-04-26T01:12:47;10.02;;;4.82;;
71106;SDS011;58763;47.982;11.516;2023-04-26T01:15:14;9.05;;;4.75;;
71106;SDS011;58763;47.982;11.516;2023-04-26T01:17:39;9.15;;;4.82;;
71106;SDS011;58763;47.982;11.516;2023-04-26T01:20:05;8.75;;;4.72;;
71106;SDS011;58763;47.982;11.516;2023-04-26T01:22:34;8.85;;;4.60;;
71106;SDS011;58763;47.982;11.516;2023-04-26T01:25:00;9.52;;;4.75;;
71106;SDS011;58763;47.982;11.516;2023-04-26T01:27:28;7.70;;;4.78;;
71106;SDS011;58763;47.982;11.516;2023-04-26T01:29:54;8.15;;;4.30;;
71106;SDS011;58763;47.982;11.516;2023-04-26T01:32:20;9.10;;;4.50;;
71106;SDS011;58763;47.982;11.516;2023-04-26T01:34:45;8.80;;;4.57;;
71106;SDS011;58763;47.982;11.516;2023-04-26T01:37:11;7.80;;;3.95;;
71106;SDS011;58763;47.982;11.516;2023-04-26T01:39:36;7.05;;;3.78;;
71106;SDS011;58763;47.982;11.516;2023-04-26T01:42:03;7.35;;;4.13;;
71106;SDS011;58763;47.982;11.516;2023-04-26T01:44:29;6.57;;;3.67;;
71106;SDS011;58763;47.982;11.516;2023-04-26T01:46:54;7.97;;;3.45;;
71106;SDS011;58763;47.982;11.516;2023-04-26T01:49:20;8.20;;;3.85;;
71106;SDS011;58763;47.982;11.516;2023-04-26T01:51:46;7.72;;;3.50;;
71106;SDS011;58763;47.982;11.516;2023-04-26T01:54:11;6.18;;;3.15;;
71106;SDS011;58763;47.982;11.516;2023-04-26T01:56:37;7.03;;;3.40;;
71106;SDS011;58763;47.982;11.516;2023-04-26T01:59:02;6.65;;;3.10;;
71106;SDS011;58763;47.982;11.516;2023-04-26T02:01:28;6.13;;;3.17;;
71106;SDS011;58763;47.982;11.516;2023-04-26T02:03:54;5.50;;;2.65;;
71106;SDS011;58763;47.982;11.516;2023-04-26T02:06:19;5.80;;;3.00;;
71106;SDS011;58763;47.982;11.516;2023-04-26T02:08:45;5.50;;;2.92;;
71106;SDS011;58763;47.982;11.516;2023-04-26T02:11:11;6.72;;;3.05;;
71106;SDS011;58763;47.982;11.516;2023-04-26T02:13:37;6.50;;;2.90;;
71106;SDS011;58763;47.982;11.516;2023-04-26T02:16:02;6.65;;;3.17;;
71106;SDS011;58763;47.982;11.516;2023-04-26T02:18:28;8.27;;;3.47;;
71106;SDS011;58763;47.982;11.516;2023-04-26T02:20:54;5.63;;;3.30;;
71106;SDS011;58763;47.982;11.516;2023-04-26T02:23:19;6.47;;;3.60;;
71106;SDS011;58763;47.982;11.516;2023-04-26T02:25:46;7.05;;;3.53;;
71106;SDS011;58763;47.982;11.516;2023-04-26T02:28:13;6.90;;;3.55;;
71106;SDS011;58763;47.982;11.516;2023-04-26T02:30:40;6.75;;;3.42;;
71106;SDS011;58763;47.982;11.516;2023-04-26T02:33:06;7.25;;;3.40;;
71106;SDS011;58763;47.982;11.516;2023-04-26T02:35:33;6.82;;;3.33;;
71106;SDS011;58763;47.982;11.516;2023-04-26T02:38:00;7.28;;;3.67;;
71106;SDS011;58763;47.982;11.516;2023-04-26T02:40:26;8.52;;;3.67;;
71106;SDS011;58763;47.982;11.516;2023-04-26T02:42:52;6.85;;;3.50;;
71106;SDS011;58763;47.982;11.516;2023-04-26T02:45:17;7.43;;;3.35;;
71106;SDS011;58763;47.982;11.516;2023-04-26T02:47:43;9.00;;;3.50;;
71106;SDS011;58763;47.982;11.516;2023-04-26T02:50:08;6.28;;;3.40;;
71106;SDS011;58763;47.982;11.516;2023-04-26T02:52:36;6.85;;;3.22;;
71106;SDS011;58763;47.982;11.516;2023-04-26T02:55:03;7.75;;;3.63;;
71106;SDS011;58763;47.982;11.516;2023-04-26T02:57:31;6.75;;;3.60;;
71106;SDS011;58763;47.982;11.516;2023-04-26T02:59:57;7.28;;;3.50;;
71106;SDS011;58763;47.982;11.516;2023-04-26T03:02:23;7.28;;;3.80;;
71106;SDS011;58763;47.982;11.516;2023-04-26T03:04:49;6.80;;;3.55;;
71106;SDS011;58763;47.982;11.516;2023-04-26T03:07:15;6.50;;;3.70;;
71106;SDS011;58763;47.982;11.516;2023-04-26T03:09:40;6.40;;;3.78;;
71106;SDS011;58763;47.982;11.516;2023-04-26T03:12:06;7.25;;;3.70;;
71106;SDS011;58763;47.982;11.516;2023-04-26T03:14:32;6.93;;;3.97;;
71106;SDS011;58763;47.982;11.516;2023-04-26T03:16:59;7.32;;;3.58;;
71106;SDS011;58763;47.982;11.516;2023-04-26T03:19:25;6.63;;;3.80;;
71106;SDS011;58763;47.982;11.516;2023-04-26T03:21:54;6.80;;;3.85;;
71106;SDS011;58763;47.982;11.516;2023-04-26T03:24:19;7.68;;;3.88;;
71106;SDS011;58763;47.982;11.516;2023-04-26T03:26:45;7.80;;;3.90;;
71106;SDS011;58763;47.982;11.516;2023-04-26T03:29:11;7.68;;;4.07;;
71106;SDS011;58763;47.982;11.516;2023-04-26T03:31:36;7.60;;;3.85;;
71106;SDS011;58763;47.982;11.516;2023-04-26T03:34:03;7.90;;;4.07;;
71106;SDS011;58763;47.982;11.516;2023-04-26T03:36:29;7.72;;;4.10;;
71106;SDS011;58763;47.982;11.516;2023-04-26T03:38:55;37.17;;;13.52;;
71106;SDS011;58763;47.982;11.516;2023-04-26T03:41:21;18.30;;;8.30;;
71106;SDS011;58763;47.982;11.516;2023-04-26T03:43:47;10.10;;;4.57;;
71106;SDS011;58763;47.982;11.516;2023-04-26T03:46:13;7.05;;;3.92;;
71106;SDS011;58763;47.982;11.516;2023-04-26T03:48:38;7.82;;;3.75;;
71106;SDS011;58763;47.982;11.516;2023-04-26T03:51:05;8.25;;;3.85;;
71106;SDS011;58763;47.982;11.516;2023-04-26T03:53:31;8.23;;;3.80;;
71106;SDS011;58763;47.982;11.516;2023-04-26T03:55:56;9.40;;;4.30;;
71106;SDS011;58763;47.982;11.516;2023-04-26T03:58:23;7.40;;;4.10;;
71106;SDS011;58763;47.982;11.516;2023-04-26T04:00:50;7.45;;;3.75;;
71106;SDS011;58763;47.982;11.516;2023-04-26T04:03:15;7.90;;;4.22;;
71106;SDS011;58763;47.982;11.516;2023-04-26T04:05:42;8.02;;;3.72;;
71106;SDS011;58763;47.982;11.516;2023-04-26T04:08:07;7.78;;;4.20;;
71106;SDS011;58763;47.982;11.516;2023-04-26T04:10:33;8.43;;;4.25;;
71106;SDS011;58763;47.982;11.516;2023-04-26T04:12:59;7.18;;;3.92;;
71106;SDS011;58763;47.982;11.516;2023-04-26T04:15:24;9.18;;;4.57;;
71106;SDS011;58763;47.982;11.516;2023-04-26T04:17:51;8.93;;;4.45;;
71106;SDS011;58763;47.982;11.516;2023-04-26T04:20:16;8.50;;;4.20;;
71106;SDS011;58763;47.982;11.516;2023-04-26T04:22:42;9.70;;;4.45;;
71106;SDS011;58763;47.982;11.516;2023-04-26T04:25:07;9.10;;;4.75;;
71106;SDS011;58763;47.982;11.516;2023-04-26T04:27:38;11.13;;;5.00;;
71106;SDS011;58763;47.982;11.516;2023-04-26T04:30:06;8.07;;;4.60;;
71106;SDS011;58763;47.982;11.516;2023-04-26T04:32:33;9.07;;;5.03;;
71106;SDS011;58763;47.982;11.516;2023-04-26T04:34:59;8.52;;;4.57;;
71106;SDS011;58763;47.982;11.516;2023-04-26T04:37:26;10.23;;;5.15;;
71106;SDS011;58763;47.982;11.516;2023-04-26T04:39:53;10.10;;;5.40;;
71106;SDS011;58763;47.982;11.516;2023-04-26T04:42:19;8.98;;;5.07;;
71106;SDS011;58763;47.982;11.516;2023-04-26T04:44:45;11.18;;;5.20;;
71106;SDS011;58763;47.982;11.516;2023-04-26T04:47:12;9.75;;;5.15;;
71106;SDS011;58763;47.982;11.516;2023-04-26T04:49:37;10.30;;;5.07;;
71106;SDS011;58763;47.982;11.516;2023-04-26T04:52:03;9.48;;;5.38;;
71106;SDS011;58763;47.982;11.516;2023-04-26T04:54:30;9.43;;;5.55;;
71106;SDS011;58763;47.982;11.516;2023-04-26T04:56:56;10.80;;;5.38;;
71106;SDS011;58763;47.982;11.516;2023-04-26T04:59:22;10.48;;;4.95;;
71106;SDS011;58763;47.982;11.516;2023-04-26T05:01:49;10.70;;;5.00;;
71106;SDS011;58763;47.982;11.516;2023-04-26T05:04:15;12.07;;;4.97;;
71106;SDS011;58763;47.982;11.516;2023-04-26T05:06:41;8.48;;;4.70;;
71106;SDS011;58763;47.982;11.516;2023-04-26T05:09:07;8.57;;;5.05;;
71106;SDS011;58763;47.982;11.516;2023-04-26T05:11:33;9.52;;;5.45;;
71106;SDS011;58763;47.982;11.516;2023-04-26T05:14:00;10.27;;;5.18;;
71106;SDS011;58763;47.982;11.516;2023-04-26T05:16:26;11.43;;;5.93;;
71106;SDS011;58763;47.982;11.516;2023-04-26T05:18:53;9.88;;;5.38;;
71106;SDS011;58763;47.982;11.516;2023-04-26T05:21:20;11.07;;;5.53;;
71106;SDS011;58763;47.982;11.516;2023-04-26T05:23:46;10.15;;;5.57;;
71106;SDS011;58763;47.982;11.516;2023-04-26T05:26:12;11.88;;;6.10;;
71106;SDS011;58763;47.982;11.516;2023-04-26T05:28:39;9.95;;;5.80;;
71106;SDS011;58763;47.982;11.516;2023-04-26T05:31:05;10.60;;;5.57;;
71106;SDS011;58763;47.982;11.516;2023-04-26T05:33:31;10.50;;;6.00;;
71106;SDS011;58763;47.982;11.516;2023-04-26T05:35:57;10.93;;;5.35;;
71106;SDS011;58763;47.982;11.516;2023-04-26T05:38:22;9.75;;;5.35;;
71106;SDS011;58763;47.982;11.516;2023-04-26T05:40:48;10.40;;;5.40;;
71106;SDS011;58763;47.982;11.516;2023-04-26T05:43:14;10.88;;;5.72;;
71106;SDS011;58763;47.982;11.516;2023-04-26T05:45:55;11.02;;;6.15;;
71106;SDS011;58763;47.982;11.516;2023-04-26T05:48:22;10.43;;;5.75;;
71106;SDS011;58763;47.982;11.516;2023-04-26T05:50:49;11.38;;;5.68;;
71106;SDS011;58763;47.982;11.516;2023-04-26T05:53:16;11.60;;;6.05;;
71106;SDS011;58763;47.982;11.516;2023-04-26T05:55:43;12.80;;;6.40;;
71106;SDS011;58763;47.982;11.516;2023-04-26T05:58:09;13.48;;;6.05;;
71106;SDS011;58763;47.982;11.516;2023-04-26T06:00:35;9.75;;;5.57;;
71106;SDS011;58763;47.982;11.516;2023-04-26T06:03:02;10.70;;;5.97;;
71106;SDS011;58763;47.982;11.516;2023-04-26T06:05:29;11.88;;;6.15;;
71106;SDS011;58763;47.982;11.516;2023-04-26T06:07:55;11.90;;;6.32;;
71106;SDS011;58763;47.982;11.516;2023-04-26T06:10:21;13.25;;;5.75;;
71106;SDS011;58763;47.982;11.516;2023-04-26T06:12:47;13.30;;;5.93;;
71106;SDS011;58763;47.982;11.516;2023-04-26T06:15:12;12.27;;;5.47;;
71106;SDS011;58763;47.982;11.516;2023-04-26T06:17:39;11.50;;;5.72;;
71106;SDS011;58763;47.982;11.516;2023-04-26T06:20:06;10.88;;;5.28;;
71106;SDS011;58763;47.982;11.516;2023-04-26T06:22:33;11.63;;;6.07;;
71106;SDS011;58763;47.982;11.516;2023-04-26T06:24:59;12.48;;;6.05;;
71106;SDS011;58763;47.982;11.516;2023-04-26T06:27:25;13.13;;;6.13;;
71106;SDS011;58763;47.982;11.516;2023-04-26T06:29:50;11.32;;;6.25;;
71106;SDS011;58763;47.982;11.516;2023-04-26T06:32:16;10.48;;;5.35;;
71106;SDS011;58763;47.982;11.516;2023-04-26T06:34:42;10.65;;;5.68;;
71106;SDS011;58763;47.982;11.516;2023-04-26T06:37:10;14.55;;;5.93;;
71106;SDS011;58763;47.982;11.516;2023-04-26T06:39:36;13.10;;;6.10;;
71106;SDS011;58763;47.982;11.516;2023-04-26T06:42:02;12.80;;;6.32;;
71106;SDS011;58763;47.982;11.516;2023-04-26T06:44:31;10.82;;;5.93;;
71106;SDS011;58763;47.982;11.516;2023-04-26T06:46:57;12.52;;;5.70;;
71106;SDS011;58763;47.982;11.516;2023-04-26T06:49:23;16.33;;;6.05;;
71106;SDS011;58763;47.982;11.516;2023-04-26T06:51:49;13.68;;;5.53;;
71106;SDS011;58763;47.982;11.516;2023-04-26T06:54:17;13.63;;;6.25;;
71106;SDS011;58763;47.982;11.516;2023-04-26T06:56:44;11.10;;;5.78;;
71106;SDS011;58763;47.982;11.516;2023-04-26T06:59:10;10.20;;;5.22;;
71106;SDS011;58763;47.982;11.516;2023-04-26T07:01:35;11.82;;;6.20;;
71106;SDS011;58763;47.982;11.516;2023-04-26T07:04:01;11.63;;;5.60;;
71106;SDS011;58763;47.982;11.516;2023-04-26T07:06:28;11.18;;;5.60;;
71106;SDS011;58763;47.982;11.516;2023-04-26T07:08:57;8.23;;;4.72;;
71106;SDS011;58763;47.982;11.516;2023-04-26T07:11:24;11.38;;;5.25;;
71106;SDS011;58763;47.982;11.516;2023-04-26T07:13:49;10.93;;;4.85;;
71106;SDS011;58763;47.982;11.516;2023-04-26T07:16:15;9.90;;;4.93;;
71106;SDS011;58763;47.982;11.516;2023-04-26T07:18:41;9.73;;;4.95;;
71106;SDS011;58763;47.982;11.516;2023-04-26T07:21:06;9.77;;;4.95;;
71106;SDS011;58763;47.982;11.516;2023-04-26T07:23:33;9.40;;;4.80;;
71106;SDS011;58763;47.982;11.516;2023-04-26T07:25:58;9.63;;;5.63;;
71106;SDS011;58763;47.982;11.516;2023-04-26T07:28:29;10.83;;;5.23;;
71106;SDS011;58763;47.982;11.516;2023-04-26T07:30:55;11.57;;;5.47;;
71106;SDS011;58763;47.982;11.516;2023-04-26T07:33:20;8.82;;;4.80;;
71106;SDS011;58763;47.982;11.516;2023-04-26T07:35:52;11.65;;;5.18;;
71106;SDS011;58763;47.982;11.516;2023-04-26T07:38:19;10.32;;;5.82;;
71106;SDS011;58763;47.982;11.516;2023-04-26T07:40:45;9.80;;;4.47;;
71106;SDS011;58763;47.982;11.516;2023-04-26T07:43:10;8.88;;;4.07;;
71106;SDS011;58763;47.982;11.516;2023-04-26T07:45:37;8.82;;;4.20;;
71106;SDS011;58763;47.982;11.516;2023-04-26T07:48:03;9.35;;;4.55;;
71106;SDS011;58763;47.982;11.516;2023-04-26T07:50:28;11.07;;;4.47;;
71106;SDS011;58763;47.982;11.516;2023-04-26T07:52:54;9.30;;;4.70;;
71106;SDS011;58763;47.982;11.516;2023-04-26T07:55:20;11.02;;;5.03;;
71106;SDS011;58763;47.982;11.516;2023-04-26T07:57:45;9.15;;;4.63;;
71106;SDS011;58763;47.982;11.516;2023-04-26T08:00:11;13.05;;;4.85;;
71106;SDS011;58763;47.982;11.516;2023-04-26T08:02:38;9.13;;;4.93;;
71106;SDS011;58763;47.982;11.516;2023-04-26T08:05:04;11.02;;;4.47;;
71106;SDS011;58763;47.982;11.516;2023-04-26T08:07:29;14.00;;;6.22;;
71106;SDS011;58763;47.982;11.516;2023-04-26T08:09:57;7.70;;;4.68;;
71106;SDS011;58763;47.982;11.516;2023-04-26T08:12:22;9.93;;;4.93;;
71106;SDS011;58763;47.982;11.516;2023-04-26T08:14:48;8.35;;;5.10;;
71106;SDS011;58763;47.982;11.516;2023-04-26T08:17:14;10.18;;;5.45;;
71106;SDS011;58763;47.982;11.516;2023-04-26T08:19:40;8.63;;;4.68;;
71106;SDS011;58763;47.982;11.516;2023-04-26T08:22:06;9.45;;;4.72;;
71106;SDS011;58763;47.982;11.516;2023-04-26T08:24:31;10.85;;;5.85;;
71106;SDS011;58763;47.982;11.516;2023-04-26T08:26:57;10.52;;;5.05;;
71106;SDS011;58763;47.982;11.516;2023-04-26T08:29:23;10.73;;;5.10;;
71106;SDS011;58763;47.982;11.516;2023-04-26T08:31:51;9.25;;;5.50;;
71106;SDS011;58763;47.982;11.516;2023-04-26T08:34:16;7.28;;;4.45;;
71106;SDS011;58763;47.982;11.516;2023-04-26T08:36:42;8.32;;;4.13;;
71106;SDS011;58763;47.982;11.516;2023-04-26T08:39:10;8.52;;;4.70;;
71106;SDS011;58763;47.982;11.516;2023-04-26T08:41:41;9.77;;;4.15;;
71106;SDS011;58763;47.982;11.516;2023-04-26T08:44:08;9.68;;;4.60;;
71106;SDS011;58763;47.982;11.516;2023-04-26T08:46:36;8.77;;;4.25;;
71106;SDS011;58763;47.982;11.516;2023-04-26T08:49:36;7.65;;;4.18;;
71106;SDS011;58763;47.982;11.516;2023-04-26T08:52:10;6.28;;;3.70;;
71106;SDS011;58763;47.982;11.516;2023-04-26T08:54:36;7.72;;;4.35;;
71106;SDS011;58763;47.982;11.516;2023-04-26T08:57:03;10.10;;;4.50;;
71106;SDS011;58763;47.982;11.516;2023-04-26T08:59:29;7.28;;;3.78;;
71106;SDS011;58763;47.982;11.516;2023-04-26T09:01:56;7.00;;;4.10;;
71106;SDS011;58763;47.982;11.516;2023-04-26T09:04:22;7.00;;;3.90;;
71106;SDS011;58763;47.982;11.516;2023-04-26T09:06:48;8.35;;;3.60;;
71106;SDS011;58763;47.982;11.516;2023-04-26T09:09:17;8.23;;;3.28;;
71106;SDS011;58763;47.982;11.516;2023-04-26T09:14:24;7.28;;;3.50;;
71106;SDS011;58763;47.982;11.516;2023-04-26T09:16:51;6.90;;;3.25;;
71106;SDS011;58763;47.982;11.516;2023-04-26T09:19:33;5.03;;;3.17;;
71106;SDS011;58763;47.982;11.516;2023-04-26T09:22:02;6.15;;;3.03;;
71106;SDS011;58763;47.982;11.516;2023-04-26T09:27:31;7.20;;;3.08;;
71106;SDS011;58763;47.982;11.516;2023-04-26T09:35:33;7.13;;;3.28;;
71106;SDS011;58763;47.982;11.516;2023-04-26T09:40:43;5.53;;;2.72;;
71106;SDS011;58763;47.982;11.516;2023-04-26T09:45:45;5.57;;;2.90;;
71106;SDS011;58763;47.982;11.516;2023-04-26T09:48:16;5.70;;;3.13;;
71106;SDS011;58763;47.982;11.516;2023-04-26T09:50:51;6.80;;;3.50;;
71106;SDS011;58763;47.982;11.516;2023-04-26T09:53:28;6.25;;;3.30;;
71106;SDS011;58763;47.982;11.516;2023-04-26T10:01:15;5.65;;;2.85;;
71106;SDS011;58763;47.982;11.516;2023-04-26T10:03:43;5.63;;;2.55;;
71106;SDS011;58763;47.982;11.516;2023-04-26T10:06:13;4.85;;;2.70;;
71106;SDS011;58763;47.982;11.516;2023-04-26T10:08:39;5.85;;;2.50;;
71106;SDS011;58763;47.982;11.516;2023-04-26T10:11:05;5.38;;;2.50;;
71106;SDS011;58763;47.982;11.516;2023-04-26T10:13:38;6.20;;;2.15;;
71106;SDS011;58763;47.982;11.516;2023-04-26T10:16:05;8.48;;;4.20;;
71106;SDS011;58763;47.982;11.516;2023-04-26T10:18:32;4.82;;;1.98;;
71106;SDS011;58763;47.982;11.516;2023-04-26T10:20:59;4.20;;;1.88;;
71106;SDS011;58763;47.982;11.516;2023-04-26T10:23:30;5.75;;;2.30;;
71106;SDS011;58763;47.982;11.516;2023-04-26T10:25:57;4.80;;;2.08;;
71106;SDS011;58763;47.982;11.516;2023-04-26T10:31:13;3.90;;;2.03;;
71106;SDS011;58763;47.982;11.516;2023-04-26T10:33:38;4.10;;;2.03;;
71106;SDS011;58763;47.982;11.516;2023-04-26T10:36:08;4.53;;;1.98;;
71106;SDS011;58763;47.982;11.516;2023-04-26T10:38:36;3.80;;;2.10;;
71106;SDS011;58763;47.982;11.516;2023-04-26T10:44:35;6.80;;;2.08;;
71106;SDS011;58763;47.982;11.516;2023-04-26T10:47:02;5.22;;;1.95;;
71106;SDS011;58763;47.982;11.516;2023-04-26T10:49:33;4.15;;;1.90;;
71106;SDS011;58763;47.982;11.516;2023-04-26T10:52:13;4.85;;;1.85;;
71106;SDS011;58763;47.982;11.516;2023-04-26T10:55:00;5.35;;;1.90;;
71106;SDS011;58763;47.982;11.516;2023-04-26T11:00:17;6.50;;;2.00;;
71106;SDS011;58763;47.982;11.516;2023-04-26T11:08:07;3.45;;;1.75;;
71106;SDS011;58763;47.982;11.516;2023-04-26T11:10:36;3.58;;;1.60;;
71106;SDS011;58763;47.982;11.516;2023-04-26T11:13:03;4.93;;;1.67;;
71106;SDS011;58763;47.982;11.516;2023-04-26T11:15:32;4.60;;;1.77;;
71106;SDS011;58763;47.982;11.516;2023-04-26T11:18:00;4.47;;;1.67;;
71106;SDS011;58763;47.982;11.516;2023-04-26T11:20:27;3.47;;;1.65;;
71106;SDS011;58763;47.982;11.516;2023-04-26T11:22:55;8.95;;;2.10;;
71106;SDS011;58763;47.982;11.516;2023-04-26T11:25:21;4.18;;;1.85;;
71106;SDS011;58763;47.982;11.516;2023-04-26T11:27:50;4.72;;;1.83;;
71106;SDS011;58763;47.982;11.516;2023-04-26T11:30:17;3.50;;;1.65;;
71106;SDS011;58763;47.982;11.516;2023-04-26T11:32:44;4.00;;;1.70;;
71106;SDS011;58763;47.982;11.516;2023-04-26T11:35:10;6.57;;;1.98;;
71106;SDS011;58763;47.982;11.516;2023-04-26T11:37:36;5.05;;;2.15;;
71106;SDS011;58763;47.982;11.516;2023-04-26T11:40:02;3.97;;;2.05;;
71106;SDS011;58763;47.982;11.516;2023-04-26T11:42:27;5.97;;;2.08;;
71106;SDS011;58763;47.982;11.516;2023-04-26T11:44:55;4.82;;;1.67;;
71106;SDS011;58763;47.982;11.516;2023-04-26T11:47:21;5.90;;;1.80;;
71106;SDS011;58763;47.982;11.516;2023-04-26T11:49:47;3.50;;;1.70;;
71106;SDS011;58763;47.982;11.516;2023-04-26T11:52:13;3.50;;;1.80;;
71106;SDS011;58763;47.982;11.516;2023-04-26T11:54:39;5.53;;;1.80;;
71106;SDS011;58763;47.982;11.516;2023-04-26T11:57:13;5.28;;;2.10;;
71106;SDS011;58763;47.982;11.516;2023-04-26T11:59:40;8.95;;;2.28;;
71106;SDS011;58763;47.982;11.516;2023-04-26T12:02:06;5.38;;;2.10;;
71106;SDS011;58763;47.982;11.516;2023-04-26T12:04:32;5.20;;;2.25;;
71106;SDS011;58763;47.982;11.516;2023-04-26T12:06:58;7.32;;;2.28;;
71106;SDS011;58763;47.982;11.516;2023-04-26T12:09:27;4.63;;;2.13;;
71106;SDS011;58763;47.982;11.516;2023-04-26T12:14:32;6.18;;;2.17;;
71106;SDS011;58763;47.982;11.516;2023-04-26T12:17:00;4.22;;;2.00;;
71106;SDS011;58763;47.982;11.516;2023-04-26T12:19:28;3.72;;;2.00;;
71106;SDS011;58763;47.982;11.516;2023-04-26T12:22:03;4.03;;;1.92;;
71106;SDS011;58763;47.982;11.516;2023-04-26T12:24:31;5.32;;;1.77;;
71106;SDS011;58763;47.982;11.516;2023-04-26T12:27:00;4.07;;;1.95;;
71106;SDS011;58763;47.982;11.516;2023-04-26T12:29:27;4.53;;;2.22;;
71106;SDS011;58763;47.982;11.516;2023-04-26T12:31:55;5.20;;;2.10;;
71106;SDS011;58763;47.982;11.516;2023-04-26T12:34:21;5.10;;;1.95;;
71106;SDS011;58763;47.982;11.516;2023-04-26T12:36:47;4.72;;;2.10;;
71106;SDS011;58763;47.982;11.516;2023-04-26T12:39:12;4.78;;;1.88;;
71106;SDS011;58763;47.982;11.516;2023-04-26T12:41:42;5.25;;;1.83;;
71106;SDS011;58763;47.982;11.516;2023-04-26T12:44:10;3.73;;;1.77;;
71106;SDS011;58763;47.982;11.516;2023-04-26T12:46:36;5.65;;;1.92;;
71106;SDS011;58763;47.982;11.516;2023-04-26T12:49:02;5.10;;;2.00;;
71106;SDS011;58763;47.982;11.516;2023-04-26T12:51:28;6.53;;;2.42;;
71106;SDS011;58763;47.982;11.516;2023-04-26T12:53:54;4.57;;;2.08;;
71106;SDS011;58763;47.982;11.516;2023-04-26T12:56:20;4.80;;;2.03;;
71106;SDS011;58763;47.982;11.516;2023-04-26T12:58:47;4.35;;;2.30;;
71106;SDS011;58763;47.982;11.516;2023-04-26T13:01:13;3.83;;;2.10;;
71106;SDS011;58763;47.982;11.516;2023-04-26T13:03:38;7.85;;;2.30;;
71106;SDS011;58763;47.982;11.516;2023-04-26T13:06:04;4.10;;;2.10;;
71106;SDS011;58763;47.982;11.516;2023-04-26T13:08:30;5.43;;;2.20;;
71106;SDS011;58763;47.982;11.516;2023-04-26T13:10:56;5.18;;;2.17;;
71106;SDS011;58763;47.982;11.516;2023-04-26T13:13:22;6.00;;;2.03;;
71106;SDS011;58763;47.982;11.516;2023-04-26T13:15:49;3.65;;;1.88;;
71106;SDS011;58763;47.982;11.516;2023-04-26T13:18:17;4.65;;;1.90;;
71106;SDS011;58763;47.982;11.516;2023-04-26T13:20:43;4.82;;;2.10;;
71106;SDS011;58763;47.982;11.516;2023-04-26T13:23:09;6.47;;;1.90;;
71106;SDS011;58763;47.982;11.516;2023-04-26T13:25:36;5.70;;;1.92;;
71106;SDS011;58763;47.982;11.516;2023-04-26T13:28:02;4.45;;;1.90;;
71106;SDS011;58763;47.982;11.516;2023-04-26T13:30:29;4.13;;;2.03;;
71106;SDS011;58763;47.982;11.516;2023-04-26T13:32:55;3.92;;;1.90;;
71106;SDS011;58763;47.982;11.516;2023-04-26T13:35:21;5.28;;;1.70;;
71106;SDS011;58763;47.982;11.516;2023-04-26T13:37:47;5.40;;;1.88;;
71106;SDS011;58763;47.982;11.516;2023-04-26T13:40:13;4.60;;;2.17;;
71106;SDS011;58763;47.982;11.516;2023-04-26T13:42:38;6.65;;;2.20;;
71106;SDS011;58763;47.982;11.516;2023-04-26T13:45:04;5.72;;;2.28;;
71106;SDS011;58763;47.982;11.516;2023-04-26T13:47:33;3.95;;;1.90;;
71106;SDS011;58763;47.982;11.516;2023-04-26T13:49:59;4.35;;;1.92;;
71106;SDS011;58763;47.982;11.516;2023-04-26T13:52:25;5.57;;;2.17;;
71106;SDS011;58763;47.982;11.516;2023-04-26T13:54:51;3.97;;;2.03;;
71106;SDS011;58763;47.982;11.516;2023-04-26T13:57:17;4.65;;;2.10;;
71106;SDS011;58763;47.982;11.516;2023-04-26T13:59:42;4.05;;;1.83;;
71106;SDS011;58763;47.982;11.516;2023-04-26T14:02:08;5.30;;;1.77;;
71106;SDS011;58763;47.982;11.516;2023-04-26T14:04:34;4.10;;;1.90;;
71106;SDS011;58763;47.982;11.516;2023-04-26T14:07:00;5.43;;;2.05;;
71106;SDS011;58763;47.982;11.516;2023-04-26T14:09:25;5.25;;;2.03;;
71106;SDS011;58763;47.982;11.516;2023-04-26T14:11:51;6.00;;;2.00;;
71106;SDS011;58763;47.982;11.516;2023-04-26T14:14:17;5.80;;;2.15;;
71106;SDS011;58763;47.982;11.516;2023-04-26T14:16:43;5.95;;;2.35;;
71106;SDS011;58763;47.982;11.516;2023-04-26T14:19:08;6.18;;;2.10;;
71106;SDS011;58763;47.982;11.516;2023-04-26T14:21:34;5.47;;;2.15;;
71106;SDS011;58763;47.982;11.516;2023-04-26T14:23:59;4.40;;;2.08;;
71106;SDS011;58763;47.982;11.516;2023-04-26T14:26:25;5.57;;;1.90;;
71106;SDS011;58763;47.982;11.516;2023-04-26T14:28:51;4.47;;;1.98;;
71106;SDS011;58763;47.982;11.516;2023-04-26T14:31:17;6.22;;;2.17;;
71106;SDS011;58763;47.982;11.516;2023-04-26T14:33:43;3.92;;;1.95;;
71106;SDS011;58763;47.982;11.516;2023-04-26T14:36:10;4.63;;;1.92;;
71106;SDS011;58763;47.982;11.516;2023-04-26T14:38:39;6.07;;;2.15;;
71106;SDS011;58763;47.982;11.516;2023-04-26T14:41:06;5.22;;;2.47;;
71106;SDS011;58763;47.982;11.516;2023-04-26T14:43:31;4.72;;;1.95;;
71106;SDS011;58763;47.982;11.516;2023-04-26T14:45:57;4.18;;;1.95;;
71106;SDS011;58763;47.982;11.516;2023-04-26T14:48:23;4.68;;;2.20;;
71106;SDS011;58763;47.982;11.516;2023-04-26T14:50:56;6.15;;;2.28;;
71106;SDS011;58763;47.982;11.516;2023-04-26T14:53:22;6.45;;;2.40;;
71106;SDS011;58763;47.982;11.516;2023-04-26T14:55:52;5.05;;;1.75;;
71106;SDS011;58763;47.982;11.516;2023-04-26T14:58:21;5.57;;;2.17;;
71106;SDS011;58763;47.982;11.516;2023-04-26T15:00:47;4.95;;;2.05;;
71106;SDS011;58763;47.982;11.516;2023-04-26T15:03:13;7.40;;;2.22;;
71106;SDS011;58763;47.982;11.516;2023-04-26T15:05:38;4.53;;;2.08;;
71106;SDS011;58763;47.982;11.516;2023-04-26T15:08:04;3.88;;;2.00;;